sensor_id;sensor_type;location;lat;lon;timestamp;temperature;humidity
74661;SHT31;63191;39.566;2.654;2022-10-31T00:00:44;20.43;75.20
74661;SHT31;63191;39.566;2.654;2022-10-31T00:03:11;20.41;75.28
74661;SHT31;63191;39.566;2.654;2022-10-31T00:05:40;20.41;75.29
74661;SHT31;63191;39.566;2.654;2022-10-31T00:08:10;20.43;75.33
74661;SHT31;63191;39.566;2.654;2022-10-31T00:10:39;20.43;75.23
74661;SHT31;63191;39.566;2.654;2022-10-31T00:13:06;20.42;75.10
74661;SHT31;63191;39.566;2.654;2022-10-31T00:15:37;20.39;75.00
74661;SHT31;63191;39.566;2.654;2022-10-31T00:18:05;20.34;75.00
74661;SHT31;63191;39.566;2.654;2022-10-31T00:20:32;20.31;75.00
74661;SHT31;63191;39.566;2.654;2022-10-31T00:23:02;20.27;75.02
74661;SHT31;63191;39.566;2.654;2022-10-31T00:25:29;20.25;75.11
74661;SHT31;63191;39.566;2.654;2022-10-31T00:27:59;20.22;75.22
74661;SHT31;63191;39.566;2.654;2022-10-31T00:30:24;20.20;75.34
74661;SHT31;63191;39.566;2.654;2022-10-31T00:32:50;20.18;75.47
74661;SHT31;63191;39.566;2.654;2022-10-31T00:35:16;20.14;75.60
74661;SHT31;63191;39.566;2.654;2022-10-31T00:37:41;20.10;75.57
74661;SHT31;63191;39.566;2.654;2022-10-31T00:40:07;20.08;75.58
74661;SHT31;63191;39.566;2.654;2022-10-31T00:42:34;20.07;75.52
74661;SHT31;63191;39.566;2.654;2022-10-31T00:45:00;20.05;75.62
74661;SHT31;63191;39.566;2.654;2022-10-31T00:47:25;20.05;75.70
74661;SHT31;63191;39.566;2.654;2022-10-31T00:49:51;20.01;75.72
74661;SHT31;63191;39.566;2.654;2022-10-31T00:52:17;20.00;75.80
74661;SHT31;63191;39.566;2.654;2022-10-31T00:54:42;19.98;75.87
74661;SHT31;63191;39.566;2.654;2022-10-31T00:57:08;19.98;75.85
74661;SHT31;63191;39.566;2.654;2022-10-31T00:59:34;19.98;75.90
74661;SHT31;63191;39.566;2.654;2022-10-31T01:01:59;19.99;75.90
74661;SHT31;63191;39.566;2.654;2022-10-31T01:04:25;20.00;75.97
74661;SHT31;63191;39.566;2.654;2022-10-31T01:06:51;20.00;75.98
74661;SHT31;63191;39.566;2.654;2022-10-31T01:09:16;19.99;75.97
74661;SHT31;63191;39.566;2.654;2022-10-31T01:11:42;19.96;75.88
74661;SHT31;63191;39.566;2.654;2022-10-31T01:14:08;19.92;75.90
74661;SHT31;63191;39.566;2.654;2022-10-31T01:16:34;19.90;76.01
74661;SHT31;63191;39.566;2.654;2022-10-31T01:19:00;19.90;76.04
74661;SHT31;63191;39.566;2.654;2022-10-31T01:21:26;19.90;76.04
74661;SHT31;63191;39.566;2.654;2022-10-31T01:23:54;19.90;76.10
74661;SHT31;63191;39.566;2.654;2022-10-31T01:26:22;19.93;76.11
74661;SHT31;63191;39.566;2.654;2022-10-31T01:28:55;19.95;76.19
74661;SHT31;63191;39.566;2.654;2022-10-31T01:31:33;19.97;76.17
74661;SHT31;63191;39.566;2.654;2022-10-31T01:34:01;19.97;76.17
74661;SHT31;63191;39.566;2.654;2022-10-31T01:36:32;20.00;76.10
74661;SHT31;63191;39.566;2.654;2022-10-31T01:39:06;20.02;76.10
74661;SHT31;63191;39.566;2.654;2022-10-31T01:41:36;20.05;76.11
74661;SHT31;63191;39.566;2.654;2022-10-31T01:46:41;20.06;76.00
74661;SHT31;63191;39.566;2.654;2022-10-31T01:51:55;20.02;76.00
74661;SHT31;63191;39.566;2.654;2022-10-31T01:54:30;20.00;76.01
74661;SHT31;63191;39.566;2.654;2022-10-31T01:57:02;19.98;76.09
74661;SHT31;63191;39.566;2.654;2022-10-31T01:59:30;19.96;76.13
74661;SHT31;63191;39.566;2.654;2022-10-31T02:02:01;19.96;76.17
74661;SHT31;63191;39.566;2.654;2022-10-31T02:04:27;19.95;76.13
74661;SHT31;63191;39.566;2.654;2022-10-31T02:07:02;19.93;76.17
74661;SHT31;63191;39.566;2.654;2022-10-31T02:09:34;19.90;76.27
74661;SHT31;63191;39.566;2.654;2022-10-31T02:12:01;19.88;76.34
74661;SHT31;63191;39.566;2.654;2022-10-31T02:14:28;19.85;76.38
74661;SHT31;63191;39.566;2.654;2022-10-31T02:16:55;19.86;76.39
74661;SHT31;63191;39.566;2.654;2022-10-31T02:19:38;19.85;76.39
74661;SHT31;63191;39.566;2.654;2022-10-31T02:22:20;19.86;76.38
74661;SHT31;63191;39.566;2.654;2022-10-31T02:27:52;19.86;76.42
74661;SHT31;63191;39.566;2.654;2022-10-31T02:30:37;19.86;76.47
74661;SHT31;63191;39.566;2.654;2022-10-31T02:33:41;19.84;76.42
74661;SHT31;63191;39.566;2.654;2022-10-31T02:36:21;19.82;76.49
74661;SHT31;63191;39.566;2.654;2022-10-31T02:39:36;19.81;76.50
74661;SHT31;63191;39.566;2.654;2022-10-31T02:41:49;19.81;76.50
74661;SHT31;63191;39.566;2.654;2022-10-31T02:44:42;19.81;76.50
74661;SHT31;63191;39.566;2.654;2022-10-31T02:47:38;19.79;76.50
74661;SHT31;63191;39.566;2.654;2022-10-31T02:52:30;19.75;76.60
74661;SHT31;63191;39.566;2.654;2022-10-31T02:54:58;19.73;76.61
74661;SHT31;63191;39.566;2.654;2022-10-31T02:57:55;19.69;76.61
74661;SHT31;63191;39.566;2.654;2022-10-31T03:00:26;19.68;76.64
74661;SHT31;63191;39.566;2.654;2022-10-31T03:11:23;19.60;76.93
74661;SHT31;63191;39.566;2.654;2022-10-31T03:19:17;19.55;77.08
74661;SHT31;63191;39.566;2.654;2022-10-31T03:22:19;19.56;77.03
74661;SHT31;63191;39.566;2.654;2022-10-31T03:24:51;19.54;77.10
74661;SHT31;63191;39.566;2.654;2022-10-31T03:27:20;19.53;77.22
74661;SHT31;63191;39.566;2.654;2022-10-31T03:29:50;19.52;77.35
74661;SHT31;63191;39.566;2.654;2022-10-31T03:32:24;19.52;77.40
74661;SHT31;63191;39.566;2.654;2022-10-31T03:34:57;19.51;77.43
74661;SHT31;63191;39.566;2.654;2022-10-31T03:37:27;19.53;77.59
74661;SHT31;63191;39.566;2.654;2022-10-31T03:39:56;19.55;77.58
74661;SHT31;63191;39.566;2.654;2022-10-31T03:42:24;19.55;77.57
74661;SHT31;63191;39.566;2.654;2022-10-31T03:44:57;19.55;77.51
74661;SHT31;63191;39.566;2.654;2022-10-31T03:47:28;19.51;77.50
74661;SHT31;63191;39.566;2.654;2022-10-31T03:49:54;19.48;77.55
74661;SHT31;63191;39.566;2.654;2022-10-31T03:55:19;19.47;77.82
74661;SHT31;63191;39.566;2.654;2022-10-31T03:57:57;19.47;77.92
74661;SHT31;63191;39.566;2.654;2022-10-31T04:00:28;19.48;78.07
74661;SHT31;63191;39.566;2.654;2022-10-31T04:03:20;19.49;78.19
74661;SHT31;63191;39.566;2.654;2022-10-31T04:05:48;19.49;78.17
74661;SHT31;63191;39.566;2.654;2022-10-31T04:08:18;19.48;78.18
74661;SHT31;63191;39.566;2.654;2022-10-31T04:10:48;19.47;78.20
74661;SHT31;63191;39.566;2.654;2022-10-31T04:13:20;19.47;78.18
74661;SHT31;63191;39.566;2.654;2022-10-31T04:15:51;19.48;78.22
74661;SHT31;63191;39.566;2.654;2022-10-31T04:18:19;19.49;78.30
74661;SHT31;63191;39.566;2.654;2022-10-31T04:20:45;19.49;78.29
74661;SHT31;63191;39.566;2.654;2022-10-31T04:23:16;19.48;78.31
74661;SHT31;63191;39.566;2.654;2022-10-31T04:25:50;19.48;78.30
74661;SHT31;63191;39.566;2.654;2022-10-31T04:28:15;19.49;78.30
74661;SHT31;63191;39.566;2.654;2022-10-31T04:30:41;19.50;78.30
74661;SHT31;63191;39.566;2.654;2022-10-31T04:33:07;19.51;78.25
74661;SHT31;63191;39.566;2.654;2022-10-31T04:35:32;19.51;78.27
74661;SHT31;63191;39.566;2.654;2022-10-31T04:37:58;19.51;78.22
74661;SHT31;63191;39.566;2.654;2022-10-31T04:40:24;19.51;78.24
74661;SHT31;63191;39.566;2.654;2022-10-31T04:42:50;19.49;78.31
74661;SHT31;63191;39.566;2.654;2022-10-31T04:45:15;19.47;78.30
74661;SHT31;63191;39.566;2.654;2022-10-31T04:47:41;19.48;78.30
74661;SHT31;63191;39.566;2.654;2022-10-31T04:50:07;19.48;78.30
74661;SHT31;63191;39.566;2.654;2022-10-31T04:52:38;19.50;78.31
74661;SHT31;63191;39.566;2.654;2022-10-31T04:55:05;19.50;78.34
74661;SHT31;63191;39.566;2.654;2022-10-31T04:57:31;19.49;78.31
74661;SHT31;63191;39.566;2.654;2022-10-31T04:59:57;19.47;78.30
74661;SHT31;63191;39.566;2.654;2022-10-31T05:02:23;19.45;78.30
74661;SHT31;63191;39.566;2.654;2022-10-31T05:04:48;19.44;78.39
74661;SHT31;63191;39.566;2.654;2022-10-31T05:07:14;19.42;78.39
74661;SHT31;63191;39.566;2.654;2022-10-31T05:09:40;19.43;78.40
74661;SHT31;63191;39.566;2.654;2022-10-31T05:12:05;19.43;78.40
74661;SHT31;63191;39.566;2.654;2022-10-31T05:14:31;19.43;78.40
74661;SHT31;63191;39.566;2.654;2022-10-31T05:16:57;19.43;78.41
74661;SHT31;63191;39.566;2.654;2022-10-31T05:19:22;19.42;78.49
74661;SHT31;63191;39.566;2.654;2022-10-31T05:21:48;19.42;78.50
74661;SHT31;63191;39.566;2.654;2022-10-31T05:24:13;19.40;78.54
74661;SHT31;63191;39.566;2.654;2022-10-31T05:26:39;19.40;78.56
74661;SHT31;63191;39.566;2.654;2022-10-31T05:29:05;19.40;78.58
74661;SHT31;63191;39.566;2.654;2022-10-31T05:31:30;19.39;78.62
74661;SHT31;63191;39.566;2.654;2022-10-31T05:33:56;19.40;78.66
74661;SHT31;63191;39.566;2.654;2022-10-31T05:36:22;19.40;78.72
74661;SHT31;63191;39.566;2.654;2022-10-31T05:38:47;19.40;78.80
74661;SHT31;63191;39.566;2.654;2022-10-31T05:41:13;19.37;78.80
74661;SHT31;63191;39.566;2.654;2022-10-31T05:43:39;19.35;78.84
74661;SHT31;63191;39.566;2.654;2022-10-31T05:46:04;19.33;78.81
74661;SHT31;63191;39.566;2.654;2022-10-31T05:48:30;19.33;78.83
74661;SHT31;63191;39.566;2.654;2022-10-31T05:50:56;19.33;78.91
74661;SHT31;63191;39.566;2.654;2022-10-31T05:53:21;19.33;79.00
74661;SHT31;63191;39.566;2.654;2022-10-31T05:55:47;19.33;79.10
74661;SHT31;63191;39.566;2.654;2022-10-31T05:58:12;19.33;79.16
74661;SHT31;63191;39.566;2.654;2022-10-31T06:00:38;19.31;79.19
74661;SHT31;63191;39.566;2.654;2022-10-31T06:03:05;19.30;79.15
74661;SHT31;63191;39.566;2.654;2022-10-31T06:05:32;19.29;79.20
74661;SHT31;63191;39.566;2.654;2022-10-31T06:07:58;19.30;79.13
74661;SHT31;63191;39.566;2.654;2022-10-31T06:10:24;19.30;79.10
74661;SHT31;63191;39.566;2.654;2022-10-31T06:12:51;19.29;79.11
74661;SHT31;63191;39.566;2.654;2022-10-31T06:15:17;19.31;79.27
74661;SHT31;63191;39.566;2.654;2022-10-31T06:17:43;19.31;79.29
74661;SHT31;63191;39.566;2.654;2022-10-31T06:20:09;19.31;79.21
74661;SHT31;63191;39.566;2.654;2022-10-31T06:22:35;19.32;79.14
74661;SHT31;63191;39.566;2.654;2022-10-31T06:25:01;19.32;79.09
74661;SHT31;63191;39.566;2.654;2022-10-31T06:27:27;19.33;79.01
74661;SHT31;63191;39.566;2.654;2022-10-31T06:29:53;19.34;78.97
74661;SHT31;63191;39.566;2.654;2022-10-31T06:32:19;19.35;78.90
74661;SHT31;63191;39.566;2.654;2022-10-31T06:34:44;19.38;78.85
74661;SHT31;63191;39.566;2.654;2022-10-31T06:37:13;19.39;78.80
74661;SHT31;63191;39.566;2.654;2022-10-31T06:39:39;19.41;78.71
74661;SHT31;63191;39.566;2.654;2022-10-31T06:42:05;19.44;78.58
74661;SHT31;63191;39.566;2.654;2022-10-31T06:44:31;19.52;78.39
74661;SHT31;63191;39.566;2.654;2022-10-31T06:46:57;19.59;78.19
74661;SHT31;63191;39.566;2.654;2022-10-31T06:49:22;19.70;77.98
74661;SHT31;63191;39.566;2.654;2022-10-31T06:51:48;19.80;77.72
74661;SHT31;63191;39.566;2.654;2022-10-31T06:54:15;19.91;77.51
74661;SHT31;63191;39.566;2.654;2022-10-31T06:56:41;20.05;77.22
74661;SHT31;63191;39.566;2.654;2022-10-31T06:59:07;20.23;76.85
74661;SHT31;63191;39.566;2.654;2022-10-31T07:01:33;20.38;76.43
74661;SHT31;63191;39.566;2.654;2022-10-31T07:03:59;20.53;76.03
74661;SHT31;63191;39.566;2.654;2022-10-31T07:06:24;20.71;75.55
74661;SHT31;63191;39.566;2.654;2022-10-31T07:08:50;20.90;75.06
74661;SHT31;63191;39.566;2.654;2022-10-31T07:11:16;21.12;74.64
74661;SHT31;63191;39.566;2.654;2022-10-31T07:13:42;21.43;74.10
74661;SHT31;63191;39.566;2.654;2022-10-31T07:16:07;21.79;73.42
74661;SHT31;63191;39.566;2.654;2022-10-31T07:18:37;22.17;72.58
74661;SHT31;63191;39.566;2.654;2022-10-31T07:21:02;22.55;71.72
74661;SHT31;63191;39.566;2.654;2022-10-31T07:23:29;22.92;70.83
74661;SHT31;63191;39.566;2.654;2022-10-31T07:25:55;23.29;70.04
74661;SHT31;63191;39.566;2.654;2022-10-31T07:28:22;23.70;69.13
74661;SHT31;63191;39.566;2.654;2022-10-31T07:30:49;24.13;68.12
74661;SHT31;63191;39.566;2.654;2022-10-31T07:33:24;24.57;67.06
74661;SHT31;63191;39.566;2.654;2022-10-31T07:35:51;25.01;65.95
74661;SHT31;63191;39.566;2.654;2022-10-31T07:38:17;25.50;64.90
74661;SHT31;63191;39.566;2.654;2022-10-31T07:40:43;25.93;63.57
74661;SHT31;63191;39.566;2.654;2022-10-31T07:43:15;26.35;62.40
74661;SHT31;63191;39.566;2.654;2022-10-31T07:45:40;26.79;61.47
74661;SHT31;63191;39.566;2.654;2022-10-31T07:48:06;27.26;60.39
74661;SHT31;63191;39.566;2.654;2022-10-31T07:50:32;27.70;59.14
74661;SHT31;63191;39.566;2.654;2022-10-31T07:53:01;28.13;58.06
74661;SHT31;63191;39.566;2.654;2022-10-31T07:55:33;28.62;57.13
74661;SHT31;63191;39.566;2.654;2022-10-31T07:58:01;29.10;56.11
74661;SHT31;63191;39.566;2.654;2022-10-31T08:00:29;29.60;54.92
74661;SHT31;63191;39.566;2.654;2022-10-31T08:02:57;30.05;53.83
74661;SHT31;63191;39.566;2.654;2022-10-31T08:05:28;30.47;52.72
74661;SHT31;63191;39.566;2.654;2022-10-31T08:07:55;30.89;51.88
74661;SHT31;63191;39.566;2.654;2022-10-31T08:10:22;31.32;51.11
74661;SHT31;63191;39.566;2.654;2022-10-31T08:12:59;31.75;50.04
74661;SHT31;63191;39.566;2.654;2022-10-31T08:15:32;32.21;48.78
74661;SHT31;63191;39.566;2.654;2022-10-31T08:18:02;32.57;47.98
74661;SHT31;63191;39.566;2.654;2022-10-31T08:20:28;32.92;47.17
74661;SHT31;63191;39.566;2.654;2022-10-31T08:22:55;33.31;46.40
74661;SHT31;63191;39.566;2.654;2022-10-31T08:25:26;33.67;45.63
74661;SHT31;63191;39.566;2.654;2022-10-31T08:27:54;34.04;45.08
74661;SHT31;63191;39.566;2.654;2022-10-31T08:30:22;34.39;44.47
74661;SHT31;63191;39.566;2.654;2022-10-31T08:33:03;34.47;43.47
74661;SHT31;63191;39.566;2.654;2022-10-31T08:35:31;34.37;43.13
74661;SHT31;63191;39.566;2.654;2022-10-31T08:37:58;34.36;42.65
74661;SHT31;63191;39.566;2.654;2022-10-31T08:40:25;34.12;42.70
74661;SHT31;63191;39.566;2.654;2022-10-31T08:42:59;33.96;43.06
74661;SHT31;63191;39.566;2.654;2022-10-31T08:45:28;34.13;43.44
74661;SHT31;63191;39.566;2.654;2022-10-31T08:47:56;34.69;43.07
74661;SHT31;63191;39.566;2.654;2022-10-31T08:50:28;35.34;42.26
74661;SHT31;63191;39.566;2.654;2022-10-31T08:53:06;35.98;41.53
74661;SHT31;63191;39.566;2.654;2022-10-31T08:55:36;36.67;40.53
74661;SHT31;63191;39.566;2.654;2022-10-31T08:58:04;37.23;39.15
74661;SHT31;63191;39.566;2.654;2022-10-31T09:00:32;37.74;38.69
74661;SHT31;63191;39.566;2.654;2022-10-31T09:03:08;38.32;38.10
74661;SHT31;63191;39.566;2.654;2022-10-31T09:05:43;38.92;36.80
74661;SHT31;63191;39.566;2.654;2022-10-31T09:08:10;39.43;36.11
74661;SHT31;63191;39.566;2.654;2022-10-31T09:10:37;39.92;35.60
74661;SHT31;63191;39.566;2.654;2022-10-31T09:13:14;40.40;34.80
74661;SHT31;63191;39.566;2.654;2022-10-31T09:15:44;40.87;34.26
74661;SHT31;63191;39.566;2.654;2022-10-31T09:18:12;41.33;33.50
74661;SHT31;63191;39.566;2.654;2022-10-31T09:20:40;41.56;32.25
74661;SHT31;63191;39.566;2.654;2022-10-31T09:25:40;41.87;31.64
74661;SHT31;63191;39.566;2.654;2022-10-31T09:28:08;42.22;31.37
74661;SHT31;63191;39.566;2.654;2022-10-31T09:30:37;42.75;31.05
74661;SHT31;63191;39.566;2.654;2022-10-31T09:33:09;43.25;29.86
74661;SHT31;63191;39.566;2.654;2022-10-31T09:35:37;43.57;29.39
74661;SHT31;63191;39.566;2.654;2022-10-31T09:38:04;43.87;28.81
74661;SHT31;63191;39.566;2.654;2022-10-31T09:52:32;44.88;27.38
74661;SHT31;63191;39.566;2.654;2022-10-31T09:55:03;45.34;27.07
74661;SHT31;63191;39.566;2.654;2022-10-31T09:57:44;45.71;26.46
74661;SHT31;63191;39.566;2.654;2022-10-31T10:00:20;45.88;25.80
74661;SHT31;63191;39.566;2.654;2022-10-31T10:02:52;45.78;25.58
74661;SHT31;63191;39.566;2.654;2022-10-31T10:05:41;45.84;25.88
74661;SHT31;63191;39.566;2.654;2022-10-31T10:08:18;45.86;25.59
74661;SHT31;63191;39.566;2.654;2022-10-31T10:11:01;45.99;25.16
74661;SHT31;63191;39.566;2.654;2022-10-31T10:25:33;46.63;24.53
74661;SHT31;63191;39.566;2.654;2022-10-31T10:30:54;46.90;24.69
74661;SHT31;63191;39.566;2.654;2022-10-31T10:33:33;47.10;24.57
74661;SHT31;63191;39.566;2.654;2022-10-31T10:36:14;47.37;24.08
74661;SHT31;63191;39.566;2.654;2022-10-31T10:39:00;47.49;23.70
74661;SHT31;63191;39.566;2.654;2022-10-31T10:41:49;47.56;23.75
74661;SHT31;63191;39.566;2.654;2022-10-31T10:44:38;47.60;23.54
74661;SHT31;63191;39.566;2.654;2022-10-31T10:47:30;47.71;23.32
74661;SHT31;63191;39.566;2.654;2022-10-31T10:50:16;47.65;23.41
74661;SHT31;63191;39.566;2.654;2022-10-31T10:53:09;47.62;23.55
74661;SHT31;63191;39.566;2.654;2022-10-31T10:55:51;47.68;23.38
74661;SHT31;63191;39.566;2.654;2022-10-31T10:58:56;47.87;23.59
74661;SHT31;63191;39.566;2.654;2022-10-31T11:01:23;47.92;23.39
74661;SHT31;63191;39.566;2.654;2022-10-31T11:03:48;47.88;23.49
74661;SHT31;63191;39.566;2.654;2022-10-31T11:06:18;47.71;23.22
74661;SHT31;63191;39.566;2.654;2022-10-31T11:08:50;47.11;23.34
74661;SHT31;63191;39.566;2.654;2022-10-31T11:13:55;46.60;24.39
74661;SHT31;63191;39.566;2.654;2022-10-31T11:16:40;46.80;24.07
74661;SHT31;63191;39.566;2.654;2022-10-31T11:19:23;46.68;24.02
74661;SHT31;63191;39.566;2.654;2022-10-31T11:21:53;46.51;24.35
74661;SHT31;63191;39.566;2.654;2022-10-31T11:24:20;45.98;24.84
74661;SHT31;63191;39.566;2.654;2022-10-31T11:26:51;45.31;25.36
74661;SHT31;63191;39.566;2.654;2022-10-31T11:29:34;44.86;25.80
74661;SHT31;63191;39.566;2.654;2022-10-31T11:32:01;44.68;26.27
74661;SHT31;63191;39.566;2.654;2022-10-31T11:37:25;44.43;26.70
74661;SHT31;63191;39.566;2.654;2022-10-31T11:40:01;43.37;27.53
74661;SHT31;63191;39.566;2.654;2022-10-31T11:42:41;42.21;28.54
74661;SHT31;63191;39.566;2.654;2022-10-31T11:45:19;41.73;29.36
74661;SHT31;63191;39.566;2.654;2022-10-31T11:47:59;41.38;29.65
74661;SHT31;63191;39.566;2.654;2022-10-31T11:50:37;40.99;30.21
74661;SHT31;63191;39.566;2.654;2022-10-31T11:53:16;40.75;30.33
74661;SHT31;63191;39.566;2.654;2022-10-31T11:58:40;40.00;31.32
74661;SHT31;63191;39.566;2.654;2022-10-31T12:01:08;39.74;31.87
74661;SHT31;63191;39.566;2.654;2022-10-31T12:06:41;39.25;32.77
74661;SHT31;63191;39.566;2.654;2022-10-31T12:11:56;38.88;33.55
74661;SHT31;63191;39.566;2.654;2022-10-31T12:14:55;38.75;33.80
74661;SHT31;63191;39.566;2.654;2022-10-31T12:18:05;38.72;33.64
74661;SHT31;63191;39.566;2.654;2022-10-31T12:21:17;38.44;33.40
74661;SHT31;63191;39.566;2.654;2022-10-31T12:23:56;38.10;33.62
74661;SHT31;63191;39.566;2.654;2022-10-31T12:32:20;37.44;34.79
74661;SHT31;63191;39.566;2.654;2022-10-31T12:43:26;36.76;35.52
74661;SHT31;63191;39.566;2.654;2022-10-31T12:46:21;36.58;36.42
74661;SHT31;63191;39.566;2.654;2022-10-31T12:52:27;35.42;38.28
74661;SHT31;63191;39.566;2.654;2022-10-31T12:57:36;33.64;41.26
74661;SHT31;63191;39.566;2.654;2022-10-31T13:00:45;32.61;43.61
74661;SHT31;63191;39.566;2.654;2022-10-31T13:03:30;31.86;44.80
74661;SHT31;63191;39.566;2.654;2022-10-31T13:06:19;31.13;46.47
74661;SHT31;63191;39.566;2.654;2022-10-31T13:08:56;30.54;47.49
74661;SHT31;63191;39.566;2.654;2022-10-31T13:11:34;30.05;48.61
74661;SHT31;63191;39.566;2.654;2022-10-31T13:14:14;29.69;49.94
74661;SHT31;63191;39.566;2.654;2022-10-31T13:16:51;29.38;51.12
74661;SHT31;63191;39.566;2.654;2022-10-31T13:22:17;28.92;52.11
74661;SHT31;63191;39.566;2.654;2022-10-31T13:24:52;28.78;52.86
74661;SHT31;63191;39.566;2.654;2022-10-31T13:27:34;28.65;53.26
74661;SHT31;63191;39.566;2.654;2022-10-31T13:30:18;28.51;53.13
74661;SHT31;63191;39.566;2.654;2022-10-31T13:32:58;28.32;53.10
74661;SHT31;63191;39.566;2.654;2022-10-31T13:38:43;28.07;54.36
74661;SHT31;63191;39.566;2.654;2022-10-31T13:44:28;27.81;55.54
74661;SHT31;63191;39.566;2.654;2022-10-31T13:47:00;27.71;55.77
74661;SHT31;63191;39.566;2.654;2022-10-31T13:54:41;27.59;56.82
74661;SHT31;63191;39.566;2.654;2022-10-31T13:57:16;27.59;56.82
74661;SHT31;63191;39.566;2.654;2022-10-31T14:02:49;27.48;56.89
74661;SHT31;63191;39.566;2.654;2022-10-31T14:08:01;27.30;57.66
74661;SHT31;63191;39.566;2.654;2022-10-31T14:10:32;27.24;57.74
74661;SHT31;63191;39.566;2.654;2022-10-31T14:15:53;27.17;58.13
74661;SHT31;63191;39.566;2.654;2022-10-31T14:18:25;27.17;58.20
74661;SHT31;63191;39.566;2.654;2022-10-31T14:20:57;27.13;58.62
74661;SHT31;63191;39.566;2.654;2022-10-31T14:28:54;26.99;58.75
74661;SHT31;63191;39.566;2.654;2022-10-31T14:34:05;26.88;59.74
74661;SHT31;63191;39.566;2.654;2022-10-31T14:45:17;26.67;60.07
74661;SHT31;63191;39.566;2.654;2022-10-31T14:48:06;26.62;60.33
74661;SHT31;63191;39.566;2.654;2022-10-31T14:53:23;26.45;60.14
74661;SHT31;63191;39.566;2.654;2022-10-31T14:55:57;26.36;60.70
74661;SHT31;63191;39.566;2.654;2022-10-31T14:58:35;26.25;61.32
74661;SHT31;63191;39.566;2.654;2022-10-31T15:01:06;26.14;61.04
74661;SHT31;63191;39.566;2.654;2022-10-31T15:03:39;26.07;61.45
74661;SHT31;63191;39.566;2.654;2022-10-31T15:06:11;26.02;61.79
74661;SHT31;63191;39.566;2.654;2022-10-31T15:08:45;25.98;62.13
74661;SHT31;63191;39.566;2.654;2022-10-31T15:11:12;25.90;62.90
74661;SHT31;63191;39.566;2.654;2022-10-31T15:13:50;25.78;63.16
74661;SHT31;63191;39.566;2.654;2022-10-31T15:16:24;25.67;63.27
74661;SHT31;63191;39.566;2.654;2022-10-31T15:19:03;25.58;63.96
74661;SHT31;63191;39.566;2.654;2022-10-31T15:21:33;25.46;64.37
74661;SHT31;63191;39.566;2.654;2022-10-31T15:24:01;25.38;64.60
74661;SHT31;63191;39.566;2.654;2022-10-31T15:26:47;25.29;64.88
74661;SHT31;63191;39.566;2.654;2022-10-31T15:29:17;25.22;65.05
74661;SHT31;63191;39.566;2.654;2022-10-31T15:31:53;25.17;65.06
74661;SHT31;63191;39.566;2.654;2022-10-31T15:34:35;25.10;65.37
74661;SHT31;63191;39.566;2.654;2022-10-31T15:37:11;24.99;65.70
74661;SHT31;63191;39.566;2.654;2022-10-31T15:39:43;24.92;65.83
74661;SHT31;63191;39.566;2.654;2022-10-31T15:42:54;24.83;66.13
74661;SHT31;63191;39.566;2.654;2022-10-31T15:45:18;24.76;66.19
74661;SHT31;63191;39.566;2.654;2022-10-31T15:47:54;24.69;66.83
74661;SHT31;63191;39.566;2.654;2022-10-31T15:50:45;24.61;67.15
74661;SHT31;63191;39.566;2.654;2022-10-31T15:53:25;24.54;67.37
74661;SHT31;63191;39.566;2.654;2022-10-31T15:56:11;24.47;67.89
74661;SHT31;63191;39.566;2.654;2022-10-31T15:58:50;24.39;68.01
74661;SHT31;63191;39.566;2.654;2022-10-31T16:01:28;24.33;68.14
74661;SHT31;63191;39.566;2.654;2022-10-31T16:06:56;24.19;68.77
74661;SHT31;63191;39.566;2.654;2022-10-31T16:09:53;24.09;69.16
74661;SHT31;63191;39.566;2.654;2022-10-31T16:12:24;24.01;69.51
74661;SHT31;63191;39.566;2.654;2022-10-31T16:15:00;23.97;69.82
74661;SHT31;63191;39.566;2.654;2022-10-31T16:17:27;23.91;70.07
74661;SHT31;63191;39.566;2.654;2022-10-31T16:22:27;23.76;70.40
74661;SHT31;63191;39.566;2.654;2022-10-31T16:24:57;23.69;70.69
74661;SHT31;63191;39.566;2.654;2022-10-31T16:27:36;23.61;70.81
74661;SHT31;63191;39.566;2.654;2022-10-31T16:30:28;23.55;71.03
74661;SHT31;63191;39.566;2.654;2022-10-31T16:38:53;23.35;71.98
74661;SHT31;63191;39.566;2.654;2022-10-31T16:41:20;23.30;72.08
74661;SHT31;63191;39.566;2.654;2022-10-31T16:43:47;23.25;72.34
74661;SHT31;63191;39.566;2.654;2022-10-31T16:46:14;23.22;72.64
74661;SHT31;63191;39.566;2.654;2022-10-31T16:48:45;23.18;72.72
74661;SHT31;63191;39.566;2.654;2022-10-31T16:51:11;23.13;72.61
74661;SHT31;63191;39.566;2.654;2022-10-31T16:53:37;23.10;72.71
74661;SHT31;63191;39.566;2.654;2022-10-31T16:56:03;23.07;72.97
74661;SHT31;63191;39.566;2.654;2022-10-31T16:58:30;23.05;73.00
74661;SHT31;63191;39.566;2.654;2022-10-31T17:00:59;23.01;73.28
74661;SHT31;63191;39.566;2.654;2022-10-31T17:03:27;22.99;73.47
74661;SHT31;63191;39.566;2.654;2022-10-31T17:05:53;22.97;73.53
74661;SHT31;63191;39.566;2.654;2022-10-31T17:08:20;22.96;73.73
74661;SHT31;63191;39.566;2.654;2022-10-31T17:10:46;22.94;73.68
74661;SHT31;63191;39.566;2.654;2022-10-31T17:13:17;22.92;73.90
74661;SHT31;63191;39.566;2.654;2022-10-31T17:15:47;22.91;73.81
74661;SHT31;63191;39.566;2.654;2022-10-31T17:18:16;22.89;73.68
74661;SHT31;63191;39.566;2.654;2022-10-31T17:20:43;22.90;73.88
74661;SHT31;63191;39.566;2.654;2022-10-31T17:23:10;22.90;73.97
74661;SHT31;63191;39.566;2.654;2022-10-31T17:25:38;22.90;73.95
74661;SHT31;63191;39.566;2.654;2022-10-31T17:28:05;22.90;74.18
74661;SHT31;63191;39.566;2.654;2022-10-31T17:30:31;22.92;74.12
74661;SHT31;63191;39.566;2.654;2022-10-31T17:32:58;22.94;74.07
74661;SHT31;63191;39.566;2.654;2022-10-31T17:35:23;22.95;73.84
74661;SHT31;63191;39.566;2.654;2022-10-31T17:37:49;22.96;73.70
74661;SHT31;63191;39.566;2.654;2022-10-31T17:40:19;22.97;73.80
74661;SHT31;63191;39.566;2.654;2022-10-31T17:42:50;22.97;73.90
74661;SHT31;63191;39.566;2.654;2022-10-31T17:45:17;22.99;73.87
74661;SHT31;63191;39.566;2.654;2022-10-31T17:47:47;23.00;73.93
74661;SHT31;63191;39.566;2.654;2022-10-31T17:50:15;23.02;73.78
74661;SHT31;63191;39.566;2.654;2022-10-31T17:52:43;23.01;73.73
74661;SHT31;63191;39.566;2.654;2022-10-31T17:55:10;22.99;73.91
74661;SHT31;63191;39.566;2.654;2022-10-31T17:57:36;22.96;73.88
74661;SHT31;63191;39.566;2.654;2022-10-31T18:00:03;22.94;73.89
74661;SHT31;63191;39.566;2.654;2022-10-31T18:02:34;22.92;73.80
74661;SHT31;63191;39.566;2.654;2022-10-31T18:05:00;22.89;73.86
74661;SHT31;63191;39.566;2.654;2022-10-31T18:07:27;22.86;73.98
74661;SHT31;63191;39.566;2.654;2022-10-31T18:09:53;22.82;74.08
74661;SHT31;63191;39.566;2.654;2022-10-31T18:12:19;22.80;74.00
74661;SHT31;63191;39.566;2.654;2022-10-31T18:14:44;22.78;73.91
74661;SHT31;63191;39.566;2.654;2022-10-31T18:17:10;22.76;73.91
74661;SHT31;63191;39.566;2.654;2022-10-31T18:19:36;22.74;73.93
74661;SHT31;63191;39.566;2.654;2022-10-31T18:22:02;22.72;73.91